createdAt,value
2023-01-18T00:01:08.108Z,78.00
2023-01-18T00:03:37.187Z,75.90
2023-01-18T00:06:06.368Z,69.70
2023-01-18T00:08:34.824Z,67.90
2023-01-18T00:11:09.905Z,68.70
2023-01-18T00:13:37.827Z,69.10
2023-01-18T00:16:06.845Z,62.80
2023-01-18T00:18:37.310Z,61.00
2023-01-18T00:21:10.328Z,64.40
2023-01-18T00:23:38.565Z,62.70
2023-01-18T00:26:08.028Z,64.40
2023-01-18T00:28:35.665Z,70.00
2023-01-18T00:31:08.577Z,77.60
2023-01-18T00:33:35.740Z,81.20
2023-01-18T00:36:03.755Z,85.80
2023-01-18T00:38:31.233Z,90.30
2023-01-18T00:40:58.680Z,88.00
2023-01-18T00:43:41.131Z,81.20
2023-01-18T00:46:16.782Z,83.60
2023-01-18T00:48:44.645Z,81.70
2023-01-18T00:51:14.405Z,80.20
2023-01-18T00:53:44.066Z,78.30
2023-01-18T00:56:13.823Z,82.00
2023-01-18T00:58:41.012Z,86.60
2023-01-18T01:01:10.141Z,89.40
2023-01-18T01:03:57.205Z,84.60
2023-01-18T01:06:47.071Z,82.90
2023-01-18T01:09:26.332Z,78.40
2023-01-18T01:12:13.371Z,70.00
2023-01-18T01:15:03.255Z,70.90
2023-01-18T01:17:50.179Z,90.80
2023-01-18T01:20:36.311Z,70.40
2023-01-18T01:23:35.203Z,94.30
2023-01-18T01:26:13.778Z,80.50
2023-01-18T01:28:45.643Z,77.40
2023-01-18T01:31:15.289Z,77.00
2023-01-18T01:33:43.287Z,82.50
2023-01-18T01:36:13.512Z,79.20
2023-01-18T01:38:41.505Z,73.20
2023-01-18T01:41:28.234Z,72.10
2023-01-18T01:44:00.353Z,70.50
2023-01-18T01:46:49.355Z,70.20
2023-01-18T01:49:28.509Z,68.50
2023-01-18T01:52:06.231Z,71.10
2023-01-18T01:54:44.834Z,68.40
2023-01-18T01:57:22.373Z,71.70
2023-01-18T01:59:59.426Z,71.10
2023-01-18T02:02:27.783Z,70.90
2023-01-18T02:04:56.052Z,74.10
2023-01-18T02:07:26.254Z,77.90
2023-01-18T02:09:54.412Z,76.90
2023-01-18T02:12:21.703Z,74.50
2023-01-18T02:14:48.930Z,75.60
2023-01-18T02:18:04.440Z,78.00
2023-01-18T02:21:02.756Z,76.40
2023-01-18T02:23:35.045Z,75.70
2023-01-18T02:26:30.323Z,75.80
2023-01-18T02:29:09.204Z,82.40
2023-01-18T02:32:02.162Z,89.60
2023-01-18T02:34:55.517Z,92.40
2023-01-18T02:37:37.120Z,94.20
2023-01-18T02:40:40.567Z,99.90
2023-01-18T02:43:29.025Z,95.80
2023-01-18T02:46:17.622Z,95.70
2023-01-18T02:48:46.469Z,92.70
2023-01-18T02:51:13.657Z,90.10
2023-01-18T02:53:44.641Z,83.60
2023-01-18T02:56:17.158Z,82.80
2023-01-18T02:59:06.840Z,80.50
2023-01-18T03:01:50.367Z,80.20
2023-01-18T03:04:26.329Z,81.70
2023-01-18T03:07:02.591Z,82.30
2023-01-18T03:09:31.314Z,88.00
2023-01-18T03:12:20.731Z,86.60
2023-01-18T03:15:29.138Z,86.60
2023-01-18T03:18:08.680Z,86.30
2023-01-18T03:20:40.278Z,77.30
2023-01-18T03:23:39.987Z,77.50
2023-01-18T03:26:08.878Z,81.20
2023-01-18T03:28:58.119Z,82.20
2023-01-18T03:32:08.367Z,85.20
2023-01-18T03:34:38.192Z,81.10
2023-01-18T03:37:12.089Z,81.40
2023-01-18T03:39:47.855Z,77.40
2023-01-18T03:42:21.553Z,72.50
2023-01-18T03:44:58.497Z,75.40
2023-01-18T03:47:25.983Z,71.00
2023-01-18T03:49:53.263Z,68.20
2023-01-18T03:52:26.207Z,67.30
2023-01-18T03:55:14.108Z,69.70
2023-01-18T03:57:44.468Z,71.10
2023-01-18T04:00:12.879Z,77.30
2023-01-18T04:02:40.829Z,83.10
2023-01-18T04:05:08.442Z,86.90
2023-01-18T04:07:35.549Z,85.50
2023-01-18T04:10:03.786Z,90.50
2023-01-18T04:12:31.600Z,89.50
2023-01-18T04:14:59.722Z,91.60
2023-01-18T04:17:27.378Z,95.00
2023-01-18T04:19:54.581Z,97.60
2023-01-18T04:22:21.779Z,98.70
2023-01-18T04:24:49.005Z,98.60
2023-01-18T04:27:16.190Z,95.30
2023-01-18T04:29:43.297Z,93.60
2023-01-18T04:32:10.477Z,92.60
2023-01-18T04:34:37.639Z,90.50
2023-01-18T04:37:04.808Z,90.20
2023-01-18T04:39:31.955Z,99.00
2023-01-18T04:41:59.224Z,86.20
2023-01-18T04:44:26.405Z,85.40
2023-01-18T04:46:53.587Z,90.70
2023-01-18T04:49:20.722Z,93.60
2023-01-18T04:51:48.189Z,95.10
2023-01-18T04:54:18.048Z,94.40
2023-01-18T04:56:45.336Z,97.50
2023-01-18T04:59:16.732Z,99.00
2023-01-18T05:01:44.336Z,95.50
2023-01-18T05:04:11.593Z,96.60
2023-01-18T05:06:38.726Z,97.90
2023-01-18T05:09:05.925Z,98.70
2023-01-18T05:11:33.012Z,97.80
2023-01-18T05:14:00.152Z,96.20
2023-01-18T05:16:28.019Z,93.00
2023-01-18T05:18:55.301Z,91.90
2023-01-18T05:21:22.505Z,91.30
2023-01-18T05:23:49.669Z,91.60
2023-01-18T05:26:21.007Z,90.50
2023-01-18T05:28:49.509Z,87.90
2023-01-18T05:31:18.859Z,88.20
2023-01-18T05:33:46.114Z,90.50
2023-01-18T05:36:13.227Z,88.00
2023-01-18T05:38:40.361Z,87.40
2023-01-18T05:41:07.464Z,90.00
2023-01-18T05:43:35.791Z,90.10
2023-01-18T05:46:03.104Z,90.30
2023-01-18T05:48:30.307Z,88.40
2023-01-18T05:50:57.457Z,91.00
2023-01-18T05:53:25.351Z,90.50
2023-01-18T05:55:57.176Z,91.30
2023-01-18T05:58:25.337Z,90.70
2023-01-18T06:00:53.126Z,94.50
2023-01-18T06:03:21.032Z,95.70
2023-01-18T06:05:48.827Z,96.10
2023-01-18T06:08:15.985Z,98.60
2023-01-18T06:10:43.858Z,98.30
2023-01-18T06:13:11.049Z,97.30
2023-01-18T06:15:38.286Z,99.00
2023-01-18T06:18:05.505Z,99.90
2023-01-18T06:20:32.625Z,99.90
2023-01-18T06:23:00.210Z,99.90
2023-01-18T06:25:27.528Z,99.90
2023-01-18T06:27:54.751Z,99.90
2023-01-18T06:30:22.051Z,99.90
2023-01-18T06:32:49.906Z,99.90
2023-01-18T06:35:17.244Z,99.90
2023-01-18T06:37:47.773Z,87.60
2023-01-18T06:40:15.182Z,63.90
2023-01-18T06:42:42.327Z,70.00
2023-01-18T06:45:10.101Z,77.80
2023-01-18T06:47:37.208Z,89.70
2023-01-18T06:50:04.776Z,96.50
2023-01-18T06:52:31.963Z,99.90
2023-01-18T06:54:59.174Z,99.90
2023-01-18T06:57:26.304Z,99.90
2023-01-18T06:59:53.513Z,99.90
2023-01-18T07:02:24.000Z,99.90
2023-01-18T07:04:51.162Z,99.90
2023-01-18T07:07:18.357Z,99.90
2023-01-18T07:09:45.712Z,99.90
2023-01-18T07:12:12.900Z,99.90
2023-01-18T07:14:40.108Z,99.90
2023-01-18T07:17:08.651Z,99.90
2023-01-18T07:19:36.281Z,99.90
2023-01-18T07:22:03.431Z,99.90
2023-01-18T07:24:30.630Z,99.90
2023-01-18T07:27:00.577Z,99.90
2023-01-18T07:29:28.388Z,99.30
2023-01-18T07:31:56.057Z,83.70
2023-01-18T07:34:23.752Z,77.50
2023-01-18T07:36:50.945Z,64.00
2023-01-18T07:39:18.129Z,57.10
2023-01-18T07:41:45.321Z,54.20
2023-01-18T07:44:13.746Z,53.60
2023-01-18T07:46:43.146Z,50.80
2023-01-18T07:49:10.351Z,47.00
2023-01-18T07:51:37.735Z,39.60
2023-01-18T07:54:04.872Z,38.80
2023-01-18T07:56:32.033Z,59.10
2023-01-18T07:58:59.167Z,39.40
2023-01-18T08:01:26.797Z,38.30
2023-01-18T08:03:54.767Z,38.40
2023-01-18T08:06:26.413Z,40.90
2023-01-18T08:08:57.049Z,44.30
2023-01-18T08:11:25.875Z,43.60
2023-01-18T08:13:53.115Z,46.90
2023-01-18T08:16:20.320Z,45.70
2023-01-18T08:18:50.923Z,47.90
2023-01-18T08:21:18.134Z,51.00
2023-01-18T08:23:45.691Z,49.90
2023-01-18T08:26:14.985Z,52.70
2023-01-18T08:28:42.326Z,53.20
2023-01-18T08:31:13.223Z,55.40
2023-01-18T08:33:43.122Z,58.20
2023-01-18T08:36:12.345Z,55.80
2023-01-18T08:38:40.082Z,56.60
2023-01-18T08:41:07.418Z,57.50
2023-01-18T08:43:34.953Z,61.40
2023-01-18T08:46:02.271Z,60.60
2023-01-18T08:48:29.448Z,58.80
2023-01-18T08:51:01.229Z,59.50
2023-01-18T08:53:29.477Z,57.90
2023-01-18T08:55:57.065Z,56.40
2023-01-18T08:58:24.414Z,53.10
2023-01-18T09:00:53.597Z,52.50
2023-01-18T09:03:21.830Z,52.70
2023-01-18T09:05:49.528Z,50.20
2023-01-18T09:08:17.595Z,50.20
2023-01-18T09:10:45.126Z,46.70
2023-01-18T09:13:12.532Z,44.10
2023-01-18T09:15:39.844Z,42.10
2023-01-18T09:18:08.248Z,40.10
2023-01-18T09:20:36.466Z,41.10
2023-01-18T09:23:05.350Z,44.80
2023-01-18T09:25:32.836Z,61.90
2023-01-18T09:28:02.340Z,42.10
2023-01-18T09:30:30.213Z,43.50
2023-01-18T09:32:58.484Z,43.00
2023-01-18T09:35:25.892Z,41.60
2023-01-18T09:37:54.537Z,44.60
2023-01-18T09:40:25.017Z,45.10
2023-01-18T09:42:53.391Z,44.30
2023-01-18T09:45:30.539Z,43.20
2023-01-18T09:48:26.241Z,45.10
2023-01-18T09:50:54.262Z,43.80
2023-01-18T09:53:43.024Z,39.20
2023-01-18T09:56:23.577Z,42.40
2023-01-18T09:59:20.904Z,39.40
2023-01-18T10:01:50.159Z,35.90
2023-01-18T10:04:36.539Z,36.40
2023-01-18T10:07:12.445Z,36.60
2023-01-18T10:09:42.748Z,33.30
2023-01-18T10:12:34.108Z,33.30
2023-01-18T10:15:17.473Z,34.60
2023-01-18T10:17:46.347Z,35.70
2023-01-18T10:20:47.855Z,37.90
2023-01-18T10:23:30.380Z,36.90
2023-01-18T10:26:04.131Z,36.90
2023-01-18T10:28:53.280Z,34.40
2023-01-18T10:31:32.928Z,35.40
2023-01-18T10:34:02.821Z,36.70
2023-01-18T10:36:33.536Z,35.70
2023-01-18T10:39:04.291Z,36.50
2023-01-18T10:41:38.601Z,37.70
2023-01-18T10:44:06.512Z,34.20
2023-01-18T10:46:33.831Z,33.00
2023-01-18T10:49:00.975Z,29.70
2023-01-18T10:51:32.772Z,28.70
2023-01-18T10:53:59.889Z,28.40
2023-01-18T10:56:28.517Z,28.50
2023-01-18T10:59:00.926Z,27.70
2023-01-18T11:01:31.795Z,28.00
2023-01-18T11:04:21.105Z,27.00
2023-01-18T11:06:51.261Z,28.20
2023-01-18T11:09:49.568Z,28.10
2023-01-18T11:12:38.877Z,30.20
2023-01-18T11:15:15.262Z,28.70
2023-01-18T11:17:56.019Z,28.70
2023-01-18T11:20:35.155Z,29.60
2023-01-18T11:23:03.965Z,29.60
2023-01-18T11:25:38.582Z,30.00
2023-01-18T11:28:16.380Z,28.30
2023-01-18T11:31:06.740Z,27.20
2023-01-18T11:33:34.123Z,27.00
2023-01-18T11:36:03.320Z,31.40
2023-01-18T11:38:33.176Z,30.90
2023-01-18T11:41:14.380Z,31.50
2023-01-18T11:43:54.865Z,31.40
2023-01-18T11:46:40.174Z,29.50
2023-01-18T11:49:37.866Z,28.80
2023-01-18T11:52:22.175Z,30.00
2023-01-18T11:54:53.504Z,31.00
2023-01-18T11:57:20.790Z,31.00
2023-01-18T11:59:49.173Z,30.40
2023-01-18T12:02:38.609Z,30.90
2023-01-18T12:05:29.149Z,30.90
2023-01-18T12:08:18.172Z,32.80
2023-01-18T12:10:45.329Z,33.20
2023-01-18T12:13:45.761Z,33.90
2023-01-18T12:16:24.891Z,34.20
2023-01-18T12:19:16.312Z,34.30
2023-01-18T12:22:09.554Z,32.50
2023-01-18T12:25:04.297Z,29.10
2023-01-18T12:28:02.121Z,27.10
2023-01-18T12:30:32.127Z,27.90
2023-01-18T12:33:42.403Z,26.40
2023-01-18T12:36:33.048Z,27.50
2023-01-18T12:39:26.945Z,26.30
2023-01-18T12:42:00.498Z,25.20
2023-01-18T12:44:47.259Z,27.60
2023-01-18T12:47:39.689Z,27.40
2023-01-18T12:50:32.100Z,27.10
2023-01-18T12:53:04.719Z,27.50
2023-01-18T12:55:34.961Z,27.20
2023-01-18T12:58:03.518Z,28.10
2023-01-18T13:00:38.275Z,28.80
2023-01-18T13:03:16.199Z,28.60
2023-01-18T13:05:49.146Z,27.80
2023-01-18T13:08:27.846Z,26.40
2023-01-18T13:11:22.004Z,28.60
2023-01-18T13:13:55.384Z,27.70
2023-01-18T13:16:25.569Z,26.50
2023-01-18T13:19:01.025Z,27.50
2023-01-18T13:22:00.435Z,28.80
2023-01-18T13:24:39.824Z,28.60
2023-01-18T13:27:10.447Z,28.30
2023-01-18T13:29:38.174Z,29.70
2023-01-18T13:32:35.141Z,30.10
2023-01-18T13:35:20.551Z,29.70
2023-01-18T13:37:55.931Z,30.70
2023-01-18T13:40:34.653Z,31.40
2023-01-18T13:43:02.105Z,30.60
2023-01-18T13:45:30.448Z,30.10
2023-01-18T13:47:57.971Z,28.60
2023-01-18T13:50:31.419Z,31.30
2023-01-18T13:53:25.174Z,31.90
2023-01-18T13:55:55.285Z,31.40
2023-01-18T13:58:29.374Z,31.00
2023-01-18T14:00:58.682Z,30.70
2023-01-18T14:03:28.613Z,31.30
2023-01-18T14:05:57.261Z,30.90
2023-01-18T14:08:32.622Z,29.70
2023-01-18T14:11:09.378Z,29.00
2023-01-18T14:13:45.931Z,30.70
2023-01-18T14:16:26.780Z,35.40
2023-01-18T14:19:13.139Z,35.90
2023-01-18T14:22:07.637Z,37.30
2023-01-18T14:24:37.511Z,40.50
2023-01-18T14:27:06.454Z,46.00
2023-01-18T14:29:37.000Z,47.90
2023-01-18T14:32:08.881Z,50.40
2023-01-18T14:34:41.234Z,51.40
2023-01-18T14:37:27.144Z,53.10
2023-01-18T14:40:16.206Z,44.20
2023-01-18T14:42:48.820Z,44.60
2023-01-18T14:45:23.545Z,47.00
2023-01-18T14:47:51.162Z,47.10
2023-01-18T14:50:21.183Z,48.60
2023-01-18T14:52:50.589Z,50.40
2023-01-18T14:55:28.033Z,49.10
2023-01-18T14:58:03.349Z,51.80
2023-01-18T15:00:30.615Z,50.10
2023-01-18T15:03:00.424Z,47.40
2023-01-18T15:05:29.927Z,46.60
2023-01-18T15:07:59.101Z,46.90
2023-01-18T15:10:26.892Z,47.80
2023-01-18T15:12:58.587Z,45.50
2023-01-18T15:15:40.576Z,45.50
2023-01-18T15:18:10.945Z,46.90
2023-01-18T15:20:50.261Z,48.00
2023-01-18T15:23:17.772Z,49.40
2023-01-18T15:25:45.075Z,48.90
2023-01-18T15:28:23.202Z,49.90
2023-01-18T15:30:53.986Z,51.90
2023-01-18T15:33:23.514Z,57.90
2023-01-18T15:35:56.895Z,60.00
2023-01-18T15:38:24.318Z,61.50
2023-01-18T15:41:04.278Z,60.10
2023-01-18T15:43:42.041Z,61.40
2023-01-18T15:46:12.922Z,67.10
2023-01-18T15:48:47.134Z,75.00
2023-01-18T15:51:14.534Z,80.30
2023-01-18T15:53:52.317Z,76.70
2023-01-18T15:56:37.713Z,75.80
2023-01-18T15:59:09.900Z,77.50
2023-01-18T16:01:37.191Z,75.70
2023-01-18T16:04:20.380Z,76.90
2023-01-18T16:06:48.021Z,71.90
2023-01-18T16:09:16.053Z,70.50
2023-01-18T16:11:54.779Z,69.90
2023-01-18T16:14:35.671Z,68.20
2023-01-18T16:17:14.497Z,66.50
2023-01-18T16:19:54.982Z,67.50
2023-01-18T16:22:24.194Z,66.40
2023-01-18T16:24:56.359Z,66.00
2023-01-18T16:27:29.748Z,67.00
2023-01-18T16:30:02.262Z,71.40
2023-01-18T16:32:31.093Z,75.20
2023-01-18T16:35:11.694Z,71.70
2023-01-18T16:37:41.472Z,72.50
2023-01-18T16:40:12.476Z,72.50
2023-01-18T16:43:01.627Z,67.40
2023-01-18T16:45:30.655Z,66.00
2023-01-18T16:47:58.075Z,67.00
2023-01-18T16:50:26.095Z,63.60
2023-01-18T16:52:53.248Z,62.50
2023-01-18T16:55:20.548Z,67.50
2023-01-18T16:57:47.720Z,66.90
2023-01-18T17:00:23.943Z,66.40
2023-01-18T17:02:51.820Z,66.20
2023-01-18T17:05:19.378Z,63.80
2023-01-18T17:07:46.553Z,62.90
2023-01-18T17:10:34.194Z,63.50
2023-01-18T17:13:02.217Z,65.50
2023-01-18T17:15:32.375Z,67.30
2023-01-18T17:17:59.604Z,61.40
2023-01-18T17:20:28.212Z,60.90
2023-01-18T17:22:56.640Z,59.50
2023-01-18T17:25:24.476Z,63.20
2023-01-18T17:27:52.240Z,58.80
2023-01-18T17:30:21.847Z,81.50
2023-01-18T17:32:50.109Z,60.40
2023-01-18T17:35:21.731Z,63.20
2023-01-18T17:37:54.392Z,58.20
2023-01-18T17:40:38.956Z,57.00
2023-01-18T17:43:10.567Z,56.70
2023-01-18T17:45:37.684Z,55.00
2023-01-18T17:48:05.172Z,61.40
2023-01-18T17:50:32.343Z,64.50
2023-01-18T17:52:59.770Z,67.50
2023-01-18T17:55:34.300Z,71.60
2023-01-18T17:58:02.453Z,68.70
2023-01-18T18:00:29.741Z,66.60
2023-01-18T18:02:57.470Z,66.60
2023-01-18T18:05:25.257Z,71.20
2023-01-18T18:07:52.537Z,72.30
2023-01-18T18:10:19.879Z,72.90
2023-01-18T18:12:47.200Z,68.20
2023-01-18T18:15:14.331Z,66.90
2023-01-18T18:17:41.743Z,66.70
2023-01-18T18:20:10.864Z,69.10
2023-01-18T18:22:38.608Z,68.70
2023-01-18T18:25:07.335Z,70.90
2023-01-18T18:27:45.528Z,70.20
2023-01-18T18:30:13.814Z,71.10
2023-01-18T18:32:40.942Z,73.90
2023-01-18T18:35:23.761Z,68.70
2023-01-18T18:37:53.589Z,60.50
2023-01-18T18:40:21.466Z,64.00
2023-01-18T18:43:04.675Z,67.70
2023-01-18T18:45:32.266Z,71.40
2023-01-18T18:48:00.216Z,93.40
2023-01-18T18:50:28.172Z,79.30
2023-01-18T18:52:55.334Z,80.40
2023-01-18T18:55:22.539Z,76.70
2023-01-18T18:57:49.877Z,78.90
2023-01-18T19:00:17.472Z,78.00
2023-01-18T19:02:44.768Z,88.00
2023-01-18T19:05:12.119Z,93.70
2023-01-18T19:07:39.514Z,96.50
2023-01-18T19:10:07.157Z,97.20
2023-01-18T19:12:34.309Z,99.20
2023-01-18T19:15:01.532Z,99.20
2023-01-18T19:17:31.237Z,98.90
2023-01-18T19:19:59.360Z,97.60
2023-01-18T19:22:26.706Z,95.00
2023-01-18T19:24:53.891Z,90.60
2023-01-18T19:27:21.843Z,90.10
2023-01-18T19:29:48.990Z,90.30
2023-01-18T19:32:16.330Z,90.60
2023-01-18T19:34:43.487Z,95.40
2023-01-18T19:37:10.745Z,99.90
2023-01-18T19:39:38.191Z,99.90
2023-01-18T19:42:06.895Z,99.90
2023-01-18T19:44:34.041Z,99.90
2023-01-18T19:47:01.557Z,99.90
2023-01-18T19:49:29.027Z,95.90
2023-01-18T19:51:56.201Z,93.50
2023-01-18T19:54:23.441Z,85.80
2023-01-18T19:56:51.477Z,83.00
2023-01-18T19:59:18.722Z,85.50
2023-01-18T20:01:46.115Z,84.70
2023-01-18T20:04:13.713Z,83.50
2023-01-18T20:06:43.691Z,81.30
2023-01-18T20:09:19.360Z,85.20
2023-01-18T20:11:47.279Z,80.10
2023-01-18T20:14:14.571Z,81.00
2023-01-18T20:16:43.856Z,86.50
2023-01-18T20:19:17.706Z,90.70
2023-01-18T20:21:45.339Z,94.70
2023-01-18T20:24:12.606Z,96.60
2023-01-18T20:26:41.782Z,99.90
2023-01-18T20:29:10.006Z,99.90
2023-01-18T20:31:38.603Z,98.30
2023-01-18T20:34:06.795Z,99.90
2023-01-18T20:36:37.630Z,98.50
2023-01-18T20:39:06.023Z,94.30
2023-01-18T20:41:33.235Z,90.00
2023-01-18T20:44:00.373Z,88.70
2023-01-18T20:46:27.540Z,81.10
2023-01-18T20:48:54.656Z,81.60
2023-01-18T20:51:22.111Z,83.50
2023-01-18T20:53:49.598Z,83.50
2023-01-18T20:56:28.771Z,83.00
2023-01-18T20:58:57.948Z,82.40
2023-01-18T21:01:31.565Z,85.10
2023-01-18T21:04:00.535Z,82.20
2023-01-18T21:06:28.656Z,83.80
2023-01-18T21:08:57.448Z,80.90
2023-01-18T21:11:26.677Z,84.40
2023-01-18T21:13:59.205Z,80.50
2023-01-18T21:16:27.733Z,84.10
2023-01-18T21:18:59.294Z,84.20
2023-01-18T21:21:27.270Z,85.80
2023-01-18T21:23:54.547Z,88.60
2023-01-18T21:26:21.731Z,91.40
2023-01-18T21:28:48.894Z,93.30
2023-01-18T21:31:16.131Z,94.30
2023-01-18T21:33:43.333Z,94.30
2023-01-18T21:36:15.596Z,95.80
2023-01-18T21:38:42.955Z,99.40
2023-01-18T21:41:29.165Z,98.80
2023-01-18T21:44:14.876Z,98.80
2023-01-18T21:46:51.003Z,99.90
2023-01-18T21:50:03.945Z,99.90
2023-01-18T21:52:43.391Z,99.90
2023-01-18T21:55:10.678Z,99.90
2023-01-18T21:57:38.782Z,98.60
2023-01-18T22:00:06.935Z,98.80
2023-01-18T22:02:35.093Z,97.40
2023-01-18T22:05:05.728Z,95.70
2023-01-18T22:07:35.224Z,97.30
2023-01-18T22:10:06.604Z,96.60
2023-01-18T22:12:36.328Z,95.80
2023-01-18T22:15:07.082Z,96.90
2023-01-18T22:17:34.449Z,94.20
2023-01-18T22:20:02.085Z,92.80
2023-01-18T22:22:29.295Z,94.20
2023-01-18T22:24:57.125Z,95.90
2023-01-18T22:27:24.329Z,96.40
2023-01-18T22:29:51.772Z,96.70
2023-01-18T22:32:18.927Z,96.30
2023-01-18T22:34:46.076Z,94.90
2023-01-18T22:37:13.242Z,96.20
2023-01-18T22:39:40.399Z,95.00
2023-01-18T22:42:07.628Z,95.10
2023-01-18T22:44:34.902Z,92.50
2023-01-18T22:47:02.025Z,91.00
2023-01-18T22:49:29.159Z,90.30
2023-01-18T22:51:56.332Z,88.70
2023-01-18T22:54:23.765Z,88.30
2023-01-18T22:56:50.965Z,88.60
2023-01-18T22:59:18.120Z,89.40
2023-01-18T23:01:45.360Z,91.10
2023-01-18T23:04:12.538Z,92.80
2023-01-18T23:06:45.571Z,94.60
2023-01-18T23:09:14.508Z,91.70
2023-01-18T23:11:41.790Z,90.60
2023-01-18T23:14:27.521Z,90.00
2023-01-18T23:17:13.218Z,88.00
2023-01-18T23:19:40.440Z,85.40
2023-01-18T23:22:07.771Z,90.50
2023-01-18T23:24:36.323Z,94.80
2023-01-18T23:27:05.560Z,97.30
2023-01-18T23:29:33.066Z,99.20
2023-01-18T23:32:00.287Z,99.90
2023-01-18T23:34:27.480Z,99.90
2023-01-18T23:36:55.060Z,99.90
2023-01-18T23:39:40.824Z,97.90
2023-01-18T23:42:26.399Z,94.90
2023-01-18T23:45:12.001Z,93.60
2023-01-18T23:47:58.369Z,91.10
2023-01-18T23:50:44.368Z,91.20
2023-01-18T23:53:31.977Z,90.90
2023-01-18T23:55:59.569Z,92.30
2023-01-18T23:58:27.680Z,91.50
